createdAt,value
2018-12-06T00:01:31.359Z,30.63
2018-12-06T00:04:01.972Z,30.33
2018-12-06T00:06:36.068Z,30.60
2018-12-06T00:09:09.543Z,31.83
2018-12-06T00:11:42.706Z,32.53
2018-12-06T00:14:21.038Z,33.40
2018-12-06T00:16:54.736Z,31.10
2018-12-06T00:19:28.067Z,28.67
2018-12-06T00:22:01.620Z,27.93
2018-12-06T00:24:32.187Z,27.83
2018-12-06T00:27:08.197Z,25.77
2018-12-06T00:29:46.423Z,27.17
2018-12-06T00:32:24.194Z,27.70
2018-12-06T00:34:54.960Z,27.47
2018-12-06T00:40:28.168Z,27.50
2018-12-06T00:43:02.197Z,26.40
2018-12-06T00:45:31.426Z,27.93
2018-12-06T00:48:07.412Z,28.47
2018-12-06T00:50:45.074Z,28.47
2018-12-06T00:53:18.820Z,27.40
2018-12-06T00:55:49.572Z,27.30
2018-12-06T00:58:23.075Z,26.40
2018-12-06T01:00:53.809Z,26.07
2018-12-06T01:03:24.305Z,25.97
2018-12-06T01:05:57.696Z,26.17
2018-12-06T01:08:31.048Z,24.80
2018-12-06T01:11:20.205Z,25.03
2018-12-06T01:13:49.348Z,24.63
2018-12-06T01:16:22.602Z,25.57
2018-12-06T01:18:51.176Z,25.07
2018-12-06T01:21:25.539Z,25.12
2018-12-06T01:23:59.080Z,26.00
2018-12-06T01:26:36.675Z,24.50
2018-12-06T01:29:05.571Z,26.10
2018-12-06T01:31:38.932Z,23.33
2018-12-06T01:34:09.679Z,24.87
2018-12-06T01:36:44.895Z,23.80
2018-12-06T01:39:18.674Z,24.30
2018-12-06T01:41:52.023Z,24.17
2018-12-06T01:44:21.014Z,22.77
2018-12-06T01:49:53.739Z,24.67
2018-12-06T01:52:27.060Z,24.00
2018-12-06T01:54:55.824Z,25.90
2018-12-06T01:57:30.143Z,25.73
2018-12-06T02:00:10.384Z,25.27
2018-12-06T02:02:41.415Z,24.63
2018-12-06T02:05:15.892Z,25.23
2018-12-06T02:07:47.643Z,24.80
2018-12-06T02:10:25.009Z,24.10
2018-12-06T02:13:09.020Z,23.73
2018-12-06T02:15:40.722Z,22.93
2018-12-06T02:18:15.467Z,22.30
2018-12-06T02:20:49.964Z,22.53
2018-12-06T02:23:25.324Z,21.90
2018-12-06T02:25:55.928Z,21.33
2018-12-06T02:28:31.166Z,21.43
2018-12-06T02:31:02.250Z,21.80
2018-12-06T02:33:32.938Z,21.13
2018-12-06T02:36:08.564Z,21.43
2018-12-06T02:38:42.175Z,21.93
2018-12-06T02:41:14.271Z,21.03
2018-12-06T02:43:52.402Z,20.13
2018-12-06T02:46:26.252Z,20.27
2018-12-06T02:49:00.676Z,20.43
2018-12-06T02:51:46.193Z,21.13
2018-12-06T02:54:19.456Z,21.53
2018-12-06T02:56:53.161Z,21.77
2018-12-06T02:59:30.625Z,20.13
2018-12-06T03:02:04.262Z,21.23
2018-12-06T03:04:35.835Z,21.97
2018-12-06T03:07:06.650Z,21.20
2018-12-06T03:09:37.395Z,19.73
2018-12-06T03:12:11.692Z,19.93
2018-12-06T03:14:42.823Z,20.07
2018-12-06T03:17:16.369Z,20.00
2018-12-06T03:19:47.928Z,21.10
2018-12-06T03:25:18.875Z,20.60
2018-12-06T03:27:49.655Z,19.57
2018-12-06T03:30:23.702Z,19.33
2018-12-06T03:32:54.599Z,18.90
2018-12-06T03:35:25.738Z,21.33
2018-12-06T03:38:09.479Z,20.23
2018-12-06T03:40:43.460Z,19.37
2018-12-06T03:43:14.866Z,20.53
2018-12-06T03:45:47.252Z,19.67
2018-12-06T03:51:09.560Z,19.90
2018-12-06T03:53:45.112Z,17.87
2018-12-06T03:56:20.623Z,20.73
2018-12-06T03:58:51.778Z,19.47
2018-12-06T04:01:25.394Z,20.27
2018-12-06T04:03:58.836Z,20.20
2018-12-06T04:06:32.079Z,19.57
2018-12-06T04:09:03.531Z,21.17
2018-12-06T04:11:37.371Z,21.87
2018-12-06T04:14:08.200Z,22.07
2018-12-06T04:16:42.225Z,20.87
2018-12-06T04:19:14.675Z,21.50
2018-12-06T04:21:48.527Z,21.23
2018-12-06T04:24:22.314Z,20.10
2018-12-06T04:26:56.334Z,19.20
2018-12-06T04:29:30.104Z,19.43
2018-12-06T04:32:05.527Z,19.90
2018-12-06T04:34:36.721Z,41.40
2018-12-06T04:37:05.575Z,39.93
2018-12-06T04:39:39.617Z,25.53
2018-12-06T04:42:14.036Z,46.50
2018-12-06T04:44:45.709Z,43.83
2018-12-06T04:50:15.576Z,22.53
2018-12-06T04:55:44.177Z,23.93
2018-12-06T04:58:20.031Z,25.07
2018-12-06T05:00:48.770Z,25.40
2018-12-06T05:03:19.644Z,24.02
2018-12-06T05:05:50.570Z,23.10
2018-12-06T05:08:24.405Z,22.20
2018-12-06T05:10:55.185Z,24.27
2018-12-06T05:13:29.245Z,22.70
2018-12-06T05:16:03.073Z,21.80
2018-12-06T05:18:43.214Z,22.67
2018-12-06T05:21:14.589Z,21.17
2018-12-06T05:23:43.623Z,23.53
2018-12-06T05:29:09.527Z,22.27
2018-12-06T05:31:44.021Z,21.90
2018-12-06T05:34:19.727Z,23.40
2018-12-06T05:36:50.669Z,20.57
2018-12-06T05:42:17.814Z,21.77
2018-12-06T05:44:49.297Z,24.53
2018-12-06T05:47:22.582Z,20.53
2018-12-06T05:49:56.196Z,20.47
2018-12-06T05:52:40.195Z,21.90
2018-12-06T05:55:09.479Z,19.93
2018-12-06T05:57:42.726Z,20.70
2018-12-06T06:03:10.975Z,18.63
2018-12-06T06:05:41.923Z,19.80
2018-12-06T06:08:16.374Z,20.47
2018-12-06T06:10:49.808Z,28.63
2018-12-06T06:16:21.391Z,31.17
2018-12-06T06:18:54.938Z,22.43
2018-12-06T06:21:32.401Z,19.30
2018-12-06T06:24:03.348Z,20.07
2018-12-06T06:26:33.638Z,21.10
2018-12-06T06:29:11.259Z,18.37
2018-12-06T06:31:44.952Z,17.73
2018-12-06T06:34:22.751Z,19.13
2018-12-06T06:36:51.703Z,17.33
2018-12-06T06:42:16.161Z,18.07
2018-12-06T06:44:47.119Z,18.07
2018-12-06T06:47:18.384Z,17.43
2018-12-06T06:49:51.907Z,17.83
2018-12-06T06:52:22.828Z,19.73
2018-12-06T06:54:56.076Z,18.60
2018-12-06T07:00:22.720Z,18.60
2018-12-06T07:11:36.071Z,21.27
2018-12-06T07:14:23.017Z,23.80
2018-12-06T07:16:53.954Z,25.73
2018-12-06T07:19:24.756Z,22.60
2018-12-06T07:21:58.310Z,24.83
2018-12-06T07:24:32.036Z,24.67
2018-12-06T07:27:03.110Z,22.73
2018-12-06T07:29:32.214Z,23.50
2018-12-06T07:32:05.567Z,22.63
2018-12-06T07:34:39.425Z,20.87
2018-12-06T07:37:10.202Z,22.50
2018-12-06T07:39:43.716Z,22.00
2018-12-06T07:42:17.148Z,22.50
2018-12-06T07:44:47.984Z,21.60
2018-12-06T07:47:19.492Z,21.90
2018-12-06T07:49:50.938Z,20.27
2018-12-06T07:52:23.406Z,19.50
2018-12-06T07:54:51.998Z,20.93
2018-12-06T08:00:18.954Z,19.80
2018-12-06T08:02:56.214Z,21.03
2018-12-06T08:05:30.096Z,19.67
2018-12-06T08:10:51.774Z,18.60
2018-12-06T08:13:29.241Z,17.33
2018-12-06T08:24:22.649Z,16.87
2018-12-06T08:29:49.687Z,20.50
2018-12-06T08:32:22.911Z,21.10
2018-12-06T08:34:53.892Z,31.37
2018-12-06T08:37:28.072Z,21.97
2018-12-06T08:40:02.120Z,22.57
2018-12-06T08:45:24.277Z,27.00
2018-12-06T08:50:55.261Z,21.73
2018-12-06T08:56:29.309Z,20.97
2018-12-06T08:59:00.388Z,17.03
2018-12-06T09:16:11.031Z,18.37
2018-12-06T09:18:41.067Z,18.67
2018-12-06T09:21:18.710Z,19.77
2018-12-06T09:26:42.683Z,20.53
2018-12-06T09:34:58.058Z,20.20
2018-12-06T09:37:31.373Z,21.60
2018-12-06T09:40:00.220Z,22.00
2018-12-06T09:42:34.703Z,21.87
2018-12-06T09:45:08.984Z,22.27
2018-12-06T09:47:40.059Z,24.93
2018-12-06T09:50:17.634Z,23.93
2018-12-06T09:52:51.058Z,22.97
2018-12-06T09:58:19.514Z,21.60
2018-12-06T10:00:50.203Z,23.03
2018-12-06T10:03:20.947Z,22.43
2018-12-06T10:05:51.527Z,22.73
2018-12-06T10:08:22.086Z,26.33
2018-12-06T10:10:52.774Z,22.47
2018-12-06T10:13:23.277Z,24.37
2018-12-06T10:15:56.608Z,22.23
2018-12-06T10:18:25.307Z,22.37
2018-12-06T10:23:52.290Z,27.17
2018-12-06T10:26:25.770Z,51.27
2018-12-06T10:34:43.366Z,31.40
2018-12-06T10:44:48.903Z,30.40
2018-12-06T10:47:22.246Z,21.67
2018-12-06T10:49:53.083Z,28.57
2018-12-06T10:52:26.191Z,25.87
2018-12-06T10:57:50.423Z,25.50
2018-12-06T11:00:26.980Z,21.17
2018-12-06T11:03:06.288Z,20.97
2018-12-06T11:05:40.153Z,20.67
2018-12-06T11:08:17.547Z,22.07
2018-12-06T11:10:48.799Z,20.97
2018-12-06T11:16:18.461Z,20.27
2018-12-06T11:18:49.740Z,20.10
2018-12-06T11:21:18.722Z,21.57
2018-12-06T11:23:49.411Z,20.70
2018-12-06T11:26:20.199Z,18.40
2018-12-06T11:28:51.414Z,19.57
2018-12-06T11:31:24.624Z,19.13
2018-12-06T11:34:00.274Z,18.77
2018-12-06T11:36:31.585Z,17.10
2018-12-06T11:39:06.225Z,18.53
2018-12-06T11:41:43.052Z,17.97
2018-12-06T11:44:12.930Z,17.60
2018-12-06T11:54:19.122Z,16.87
2018-12-06T11:59:46.488Z,17.07
2018-12-06T12:02:19.868Z,15.17
2018-12-06T12:04:53.703Z,17.93
2018-12-06T12:07:28.169Z,16.07
2018-12-06T12:10:05.528Z,18.47
2018-12-06T12:12:36.616Z,16.83
2018-12-06T12:15:06.191Z,16.13
2018-12-06T12:17:36.699Z,18.70
2018-12-06T12:20:14.027Z,17.07
2018-12-06T12:22:44.527Z,14.40
2018-12-06T12:25:19.756Z,14.60
2018-12-06T12:27:48.472Z,14.23
2018-12-06T12:30:19.047Z,15.50
2018-12-06T12:32:47.735Z,13.90
2018-12-06T12:35:21.136Z,14.90
2018-12-06T12:38:08.524Z,15.57
2018-12-06T12:40:44.432Z,14.73
2018-12-06T12:43:22.093Z,14.07
2018-12-06T12:48:51.973Z,12.50
2018-12-06T12:51:25.115Z,12.47
2018-12-06T13:00:01.379Z,14.30
2018-12-06T13:02:30.050Z,12.00
2018-12-06T13:05:01.387Z,11.55
2018-12-06T13:07:32.094Z,11.23
2018-12-06T13:10:07.729Z,11.20
2018-12-06T13:12:41.433Z,10.77
2018-12-06T13:15:14.892Z,9.70
2018-12-06T13:17:48.447Z,10.43
2018-12-06T13:20:22.270Z,9.40
2018-12-06T13:22:53.335Z,9.53
2018-12-06T13:25:31.192Z,10.10
2018-12-06T13:28:15.474Z,9.37
2018-12-06T13:30:50.726Z,9.43
2018-12-06T13:33:21.391Z,9.73
2018-12-06T13:35:50.434Z,8.97
2018-12-06T13:38:27.727Z,9.30
2018-12-06T13:41:01.418Z,8.93
2018-12-06T13:43:30.603Z,8.13
2018-12-06T13:46:08.806Z,8.60
2018-12-06T13:48:43.140Z,8.20
2018-12-06T13:51:11.991Z,8.00
2018-12-06T13:53:45.526Z,7.47
2018-12-06T13:56:29.361Z,6.63
2018-12-06T13:58:59.387Z,6.67
2018-12-06T14:01:30.203Z,7.27
2018-12-06T14:03:57.710Z,7.67
2018-12-06T14:06:41.091Z,7.00
2018-12-06T14:09:16.143Z,6.77
2018-12-06T14:11:53.590Z,6.67
2018-12-06T14:14:27.391Z,6.17
2018-12-06T14:17:15.898Z,6.43
2018-12-06T14:19:49.625Z,6.77
2018-12-06T14:22:30.759Z,6.23
2018-12-06T14:25:04.232Z,5.97
2018-12-06T14:27:44.901Z,6.23
2018-12-06T14:30:18.723Z,6.00
2018-12-06T14:35:51.152Z,6.53
2018-12-06T14:38:31.805Z,6.53
2018-12-06T14:41:02.869Z,6.63
2018-12-06T14:43:34.367Z,6.60
2018-12-06T14:46:13.733Z,6.53
2018-12-06T14:48:51.260Z,7.00
2018-12-06T14:51:22.244Z,8.23
2018-12-06T14:53:49.716Z,8.00
2018-12-06T14:56:23.576Z,7.60
2018-12-06T14:58:57.861Z,6.93
2018-12-06T15:01:31.431Z,9.10
2018-12-06T15:04:13.748Z,9.47
2018-12-06T15:06:47.112Z,7.87
2018-12-06T15:09:21.526Z,7.60
2018-12-06T15:11:56.158Z,7.60
2018-12-06T15:14:32.706Z,7.87
2018-12-06T15:17:06.876Z,6.63
2018-12-06T15:22:16.559Z,7.40
2018-12-06T15:37:21.118Z,9.23
2018-12-06T15:39:54.627Z,8.30
2018-12-06T15:42:25.160Z,8.57
2018-12-06T15:44:58.775Z,9.20
2018-12-06T15:47:33.818Z,9.73
2018-12-06T15:50:10.908Z,9.60
2018-12-06T15:52:48.976Z,10.27
2018-12-06T15:55:20.600Z,10.90
2018-12-06T15:57:59.250Z,15.20
2018-12-06T16:00:40.406Z,16.13
2018-12-06T16:03:15.130Z,13.03
2018-12-06T16:05:59.508Z,12.23
2018-12-06T16:11:21.455Z,12.20
2018-12-06T16:13:52.289Z,9.87
2018-12-06T16:16:22.674Z,11.20
2018-12-06T16:18:53.239Z,9.93
2018-12-06T16:21:33.332Z,9.80
2018-12-06T16:24:03.030Z,10.70
2018-12-06T16:26:34.197Z,10.73
2018-12-06T16:29:08.963Z,10.43
2018-12-06T16:31:43.843Z,10.90
2018-12-06T16:34:21.573Z,10.10
2018-12-06T16:36:52.606Z,10.30
2018-12-06T16:39:27.749Z,11.57
2018-12-06T16:42:08.153Z,9.67
2018-12-06T16:44:45.731Z,10.40
2018-12-06T16:47:16.237Z,9.30
2018-12-06T16:49:43.779Z,9.77
2018-12-06T16:52:21.070Z,11.03
2018-12-06T16:54:54.470Z,9.03
2018-12-06T16:57:27.690Z,8.43
2018-12-06T17:02:52.599Z,8.07
2018-12-06T17:05:26.721Z,8.83
2018-12-06T17:07:57.363Z,8.00
2018-12-06T17:10:28.073Z,9.27
2018-12-06T17:13:01.340Z,9.87
2018-12-06T17:15:35.608Z,9.60
2018-12-06T17:18:11.827Z,8.40
2018-12-06T17:20:40.444Z,7.90
2018-12-06T17:23:16.332Z,8.80
2018-12-06T17:25:56.721Z,8.63
2018-12-06T17:28:32.290Z,8.23
2018-12-06T17:31:06.329Z,7.97
2018-12-06T17:33:50.549Z,7.70
2018-12-06T17:36:28.381Z,7.87
2018-12-06T17:42:02.101Z,8.03
2018-12-06T17:44:35.714Z,8.20
2018-12-06T17:47:09.955Z,7.33
2018-12-06T17:49:37.445Z,7.07
2018-12-06T17:52:14.161Z,7.03
2018-12-06T17:54:44.793Z,7.60
2018-12-06T17:57:16.097Z,7.77
2018-12-06T18:00:02.922Z,8.10
2018-12-06T18:02:34.946Z,6.97
2018-12-06T18:05:12.011Z,7.70
2018-12-06T18:07:43.840Z,7.23
2018-12-06T18:10:21.273Z,8.20
2018-12-06T18:13:03.424Z,8.40
2018-12-06T18:15:39.743Z,8.73
2018-12-06T18:18:15.136Z,8.97
2018-12-06T18:20:44.727Z,8.57
2018-12-06T18:23:19.658Z,8.97
2018-12-06T18:25:53.378Z,8.87
2018-12-06T18:28:26.631Z,8.07
2018-12-06T18:30:55.865Z,9.60
2018-12-06T18:33:26.968Z,9.70
2018-12-06T18:36:09.165Z,9.90
2018-12-06T18:38:42.370Z,9.60
2018-12-06T18:41:29.169Z,8.07
2018-12-06T18:44:03.031Z,8.07
2018-12-06T18:46:33.049Z,8.10
2018-12-06T18:49:03.843Z,9.13
2018-12-06T18:51:43.869Z,7.10
2018-12-06T18:54:19.806Z,8.43
2018-12-06T18:56:48.514Z,8.63
2018-12-06T18:59:19.304Z,6.35
2018-12-06T19:01:48.757Z,6.27
2018-12-06T19:04:30.313Z,7.33
2018-12-06T19:07:00.931Z,8.13
2018-12-06T19:09:34.377Z,6.87
2018-12-06T19:12:06.398Z,7.13
2018-12-06T19:14:37.675Z,6.33
2018-12-06T19:17:13.503Z,5.57
2018-12-06T19:19:48.173Z,6.27
2018-12-06T19:22:25.500Z,6.13
2018-12-06T19:25:01.403Z,6.20
2018-12-06T19:27:35.488Z,7.20
2018-12-06T19:30:09.062Z,7.77
2018-12-06T19:32:49.304Z,8.70
2018-12-06T19:35:23.239Z,8.53
2018-12-06T19:37:53.929Z,9.20
2018-12-06T19:40:27.543Z,8.50
2018-12-06T19:42:57.615Z,6.97
2018-12-06T19:45:31.470Z,8.70
2018-12-06T19:48:02.373Z,9.77
2018-12-06T19:50:32.888Z,8.63
2018-12-06T19:53:14.070Z,9.20
2018-12-06T19:55:49.027Z,10.40
2018-12-06T19:58:20.470Z,10.57
2018-12-06T20:00:51.397Z,9.57
2018-12-06T20:03:22.689Z,8.77
2018-12-06T20:05:53.511Z,8.60
2018-12-06T20:08:24.864Z,8.60
2018-12-06T20:11:02.146Z,8.90
2018-12-06T20:13:35.932Z,8.70
2018-12-06T20:16:09.489Z,8.53
2018-12-06T20:18:45.158Z,10.50
2018-12-06T20:24:25.060Z,7.50
2018-12-06T20:26:56.372Z,6.33
2018-12-06T20:29:25.348Z,6.70
2018-12-06T20:31:54.460Z,6.10
2018-12-06T20:40:12.830Z,5.17
2018-12-06T20:42:43.592Z,4.67
2018-12-06T20:45:28.072Z,5.23
2018-12-06T20:47:59.114Z,4.87
2018-12-06T20:50:30.302Z,4.20
2018-12-06T20:53:16.167Z,4.30
2018-12-06T20:55:54.217Z,3.90
2018-12-06T20:58:26.113Z,3.63
2018-12-06T21:01:06.067Z,3.60
2018-12-06T21:03:44.624Z,4.03
2018-12-06T21:09:09.014Z,4.10
2018-12-06T21:14:34.983Z,3.60
2018-12-06T21:17:09.393Z,3.50
2018-12-06T21:19:38.291Z,3.77
2018-12-06T21:22:11.712Z,3.57
2018-12-06T21:24:43.521Z,5.03
2018-12-06T21:27:14.159Z,4.57
2018-12-06T21:29:49.317Z,5.57
2018-12-06T21:32:23.841Z,4.53
2018-12-06T21:34:54.996Z,5.30
2018-12-06T21:37:25.756Z,4.80
2018-12-06T21:39:59.136Z,4.60
2018-12-06T21:42:32.634Z,4.67
2018-12-06T21:45:06.224Z,5.40
2018-12-06T21:47:39.709Z,4.90
2018-12-06T21:50:19.872Z,5.13
2018-12-06T21:53:06.730Z,5.50
2018-12-06T21:58:45.360Z,4.80
2018-12-06T22:01:16.725Z,6.20
2018-12-06T22:03:50.119Z,6.03
2018-12-06T22:06:19.028Z,6.47
2018-12-06T22:08:52.270Z,5.57
2018-12-06T22:14:23.802Z,5.07
2018-12-06T22:19:59.089Z,4.33
2018-12-06T22:22:30.067Z,3.43
2018-12-06T22:33:38.011Z,3.07
2018-12-06T22:39:00.067Z,3.10
2018-12-06T22:44:21.324Z,4.10
2018-12-06T22:46:55.105Z,3.35
2018-12-06T22:55:37.721Z,3.47
2018-12-06T22:58:11.225Z,3.30
2018-12-06T23:15:14.007Z,2.90
2018-12-06T23:26:24.857Z,2.47
2018-12-06T23:37:46.755Z,2.50
2018-12-06T23:46:14.505Z,2.60
2018-12-06T23:48:46.951Z,2.03
2018-12-06T23:51:31.437Z,2.10
2018-12-06T23:54:08.779Z,2.93
2018-12-06T23:56:41.928Z,1.90
2018-12-06T23:59:25.878Z,1.70
